sensor_id;sensor_type;location;lat;lon;timestamp;pressure;altitude;pressure_sealevel;temperature;humidity
16331;BME280;8275;48.206;16.340;2022-08-23T00:01:34;98917.19;;;20.81;60.38
16331;BME280;8275;48.206;16.340;2022-08-23T00:04:11;98917.06;;;20.78;60.79
16331;BME280;8275;48.206;16.340;2022-08-23T00:06:41;98915.41;;;20.77;61.11
16331;BME280;8275;48.206;16.340;2022-08-23T00:09:10;98919.03;;;20.77;60.92
16331;BME280;8275;48.206;16.340;2022-08-23T00:11:43;98906.56;;;20.75;61.30
16331;BME280;8275;48.206;16.340;2022-08-23T00:14:15;98920.84;;;20.73;61.09
16331;BME280;8275;48.206;16.340;2022-08-23T00:16:45;98925.59;;;20.73;61.44
16331;BME280;8275;48.206;16.340;2022-08-23T00:19:17;98925.09;;;20.71;61.63
16331;BME280;8275;48.206;16.340;2022-08-23T00:21:46;98926.75;;;20.72;61.34
16331;BME280;8275;48.206;16.340;2022-08-23T00:24:17;98934.28;;;20.71;61.86
16331;BME280;8275;48.206;16.340;2022-08-23T00:26:59;98931.31;;;20.68;61.52
16331;BME280;8275;48.206;16.340;2022-08-23T00:29:31;98941.31;;;20.69;61.79
16331;BME280;8275;48.206;16.340;2022-08-23T00:32:00;98938.69;;;20.72;61.98
16331;BME280;8275;48.206;16.340;2022-08-23T00:34:30;98930.00;;;20.74;61.93
16331;BME280;8275;48.206;16.340;2022-08-23T00:36:59;98936.53;;;20.78;61.94
16331;BME280;8275;48.206;16.340;2022-08-23T00:39:27;98931.81;;;20.78;62.18
16331;BME280;8275;48.206;16.340;2022-08-23T00:41:59;98941.28;;;20.77;61.80
16331;BME280;8275;48.206;16.340;2022-08-23T00:44:51;98932.13;;;20.77;62.09
16331;BME280;8275;48.206;16.340;2022-08-23T00:47:40;98919.34;;;20.76;62.05
16331;BME280;8275;48.206;16.340;2022-08-23T00:50:20;98928.38;;;20.73;62.03
16331;BME280;8275;48.206;16.340;2022-08-23T00:53:02;98926.75;;;20.72;61.71
16331;BME280;8275;48.206;16.340;2022-08-23T00:55:32;98930.66;;;20.71;61.27
16331;BME280;8275;48.206;16.340;2022-08-23T00:58:02;98917.88;;;20.70;61.45
16331;BME280;8275;48.206;16.340;2022-08-23T01:00:31;98916.25;;;20.69;61.17
16331;BME280;8275;48.206;16.340;2022-08-23T01:03:02;98923.78;;;20.68;61.24
16331;BME280;8275;48.206;16.340;2022-08-23T01:05:42;98924.97;;;20.67;61.25
16331;BME280;8275;48.206;16.340;2022-08-23T01:08:13;98924.28;;;20.70;60.95
16331;BME280;8275;48.206;16.340;2022-08-23T01:10:47;98922.31;;;20.71;61.19
16331;BME280;8275;48.206;16.340;2022-08-23T01:13:33;98922.31;;;20.71;61.06
16331;BME280;8275;48.206;16.340;2022-08-23T01:16:06;98924.94;;;20.76;60.69
16331;BME280;8275;48.206;16.340;2022-08-23T01:18:37;98920.97;;;20.77;60.86
16331;BME280;8275;48.206;16.340;2022-08-23T01:21:22;98922.63;;;20.78;60.82
16331;BME280;8275;48.206;16.340;2022-08-23T01:23:56;98925.56;;;20.81;60.39
16331;BME280;8275;48.206;16.340;2022-08-23T01:26:27;98916.06;;;20.82;60.64
16331;BME280;8275;48.206;16.340;2022-08-23T01:28:57;98922.47;;;20.83;60.13
16331;BME280;8275;48.206;16.340;2022-08-23T01:31:27;98911.31;;;20.83;60.37
16331;BME280;8275;48.206;16.340;2022-08-23T01:34:01;98922.78;;;20.81;60.42
16331;BME280;8275;48.206;16.340;2022-08-23T01:36:31;98920.97;;;20.85;60.30
16331;BME280;8275;48.206;16.340;2022-08-23T01:39:02;98926.56;;;20.85;60.32
16331;BME280;8275;48.206;16.340;2022-08-23T01:41:31;98927.03;;;20.87;60.46
16331;BME280;8275;48.206;16.340;2022-08-23T01:44:00;98919.50;;;20.88;60.45
16331;BME280;8275;48.206;16.340;2022-08-23T01:46:28;98931.44;;;20.88;60.41
16331;BME280;8275;48.206;16.340;2022-08-23T01:48:57;98918.81;;;20.91;60.52
16331;BME280;8275;48.206;16.340;2022-08-23T01:51:26;98926.84;;;20.92;60.32
16331;BME280;8275;48.206;16.340;2022-08-23T01:53:54;98927.66;;;20.93;60.21
16331;BME280;8275;48.206;16.340;2022-08-23T01:56:25;98926.84;;;20.92;60.22
16331;BME280;8275;48.206;16.340;2022-08-23T01:59:06;98925.22;;;20.91;60.25
16331;BME280;8275;48.206;16.340;2022-08-23T02:01:36;98931.13;;;20.90;60.09
16331;BME280;8275;48.206;16.340;2022-08-23T02:04:04;98926.22;;;20.87;60.01
16331;BME280;8275;48.206;16.340;2022-08-23T02:06:33;98928.50;;;20.85;60.61
16331;BME280;8275;48.206;16.340;2022-08-23T02:09:03;98929.63;;;20.84;60.76
16331;BME280;8275;48.206;16.340;2022-08-23T02:11:46;98926.06;;;20.83;60.95
16331;BME280;8275;48.206;16.340;2022-08-23T02:14:19;98931.13;;;20.81;61.04
16331;BME280;8275;48.206;16.340;2022-08-23T02:16:51;98925.91;;;20.80;61.07
16331;BME280;8275;48.206;16.340;2022-08-23T02:19:31;98919.84;;;20.78;61.51
16331;BME280;8275;48.206;16.340;2022-08-23T02:22:00;98933.75;;;20.78;61.54
16331;BME280;8275;48.206;16.340;2022-08-23T02:24:29;98931.31;;;20.76;61.96
16331;BME280;8275;48.206;16.340;2022-08-23T02:27:03;98941.63;;;20.76;62.26
16331;BME280;8275;48.206;16.340;2022-08-23T02:29:33;98946.38;;;20.75;62.76
16331;BME280;8275;48.206;16.340;2022-08-23T02:32:06;98943.94;;;20.74;62.66
16331;BME280;8275;48.206;16.340;2022-08-23T02:34:36;98935.91;;;20.72;63.10
16331;BME280;8275;48.206;16.340;2022-08-23T02:37:05;98947.03;;;20.72;62.98
16331;BME280;8275;48.206;16.340;2022-08-23T02:39:34;98939.50;;;20.73;62.96
16331;BME280;8275;48.206;16.340;2022-08-23T02:42:08;98947.38;;;20.71;63.10
16331;BME280;8275;48.206;16.340;2022-08-23T02:44:38;98939.03;;;20.71;63.47
16331;BME280;8275;48.206;16.340;2022-08-23T02:47:06;98935.41;;;20.70;63.19
16331;BME280;8275;48.206;16.340;2022-08-23T02:49:36;98936.56;;;20.69;63.44
16331;BME280;8275;48.206;16.340;2022-08-23T02:52:05;98938.88;;;20.67;63.56
16331;BME280;8275;48.206;16.340;2022-08-23T02:54:34;98952.13;;;20.70;64.03
16331;BME280;8275;48.206;16.340;2022-08-23T02:57:04;98950.97;;;20.71;64.30
16331;BME280;8275;48.206;16.340;2022-08-23T02:59:34;98958.16;;;20.72;64.64
16331;BME280;8275;48.206;16.340;2022-08-23T03:02:03;98962.25;;;20.75;64.82
16331;BME280;8275;48.206;16.340;2022-08-23T03:04:31;98955.06;;;20.74;64.37
16331;BME280;8275;48.206;16.340;2022-08-23T03:07:00;98969.31;;;20.72;64.33
16331;BME280;8275;48.206;16.340;2022-08-23T03:09:28;98966.03;;;20.70;64.64
16331;BME280;8275;48.206;16.340;2022-08-23T03:11:57;98965.53;;;20.68;64.83
16331;BME280;8275;48.206;16.340;2022-08-23T03:14:25;98965.06;;;20.66;64.78
16331;BME280;8275;48.206;16.340;2022-08-23T03:16:55;98959.34;;;20.63;64.35
16331;BME280;8275;48.206;16.340;2022-08-23T03:19:24;98959.66;;;20.61;64.47
16331;BME280;8275;48.206;16.340;2022-08-23T03:21:52;98955.56;;;20.59;64.66
16331;BME280;8275;48.206;16.340;2022-08-23T03:24:21;98953.78;;;20.54;64.57
16331;BME280;8275;48.206;16.340;2022-08-23T03:26:50;98958.03;;;20.52;64.58
16331;BME280;8275;48.206;16.340;2022-08-23T03:29:18;98963.44;;;20.48;64.89
16331;BME280;8275;48.206;16.340;2022-08-23T03:31:47;98956.22;;;20.47;64.99
16331;BME280;8275;48.206;16.340;2022-08-23T03:34:21;98960.81;;;20.43;64.88
16331;BME280;8275;48.206;16.340;2022-08-23T03:36:49;98957.56;;;20.41;65.02
16331;BME280;8275;48.206;16.340;2022-08-23T03:39:18;98962.63;;;20.39;65.32
16331;BME280;8275;48.206;16.340;2022-08-23T03:41:46;98962.94;;;20.38;65.41
16331;BME280;8275;48.206;16.340;2022-08-23T03:44:15;98961.97;;;20.34;65.44
16331;BME280;8275;48.206;16.340;2022-08-23T03:46:44;98962.31;;;20.32;65.65
16331;BME280;8275;48.206;16.340;2022-08-23T03:49:12;98963.78;;;20.29;65.45
16331;BME280;8275;48.206;16.340;2022-08-23T03:51:42;98968.53;;;20.29;65.72
16331;BME280;8275;48.206;16.340;2022-08-23T03:54:10;98962.13;;;20.28;65.74
16331;BME280;8275;48.206;16.340;2022-08-23T03:56:51;98965.59;;;20.25;65.73
16331;BME280;8275;48.206;16.340;2022-08-23T03:59:19;98974.41;;;20.27;65.97
16331;BME280;8275;48.206;16.340;2022-08-23T04:01:48;98971.63;;;20.27;66.03
16331;BME280;8275;48.206;16.340;2022-08-23T04:04:16;98966.91;;;20.28;66.10
16331;BME280;8275;48.206;16.340;2022-08-23T04:06:46;98968.84;;;20.27;66.06
16331;BME280;8275;48.206;16.340;2022-08-23T04:09:16;98966.06;;;20.27;66.12
16331;BME280;8275;48.206;16.340;2022-08-23T04:11:44;98972.78;;;20.26;65.95
16331;BME280;8275;48.206;16.340;2022-08-23T04:14:13;98978.34;;;20.26;66.05
16331;BME280;8275;48.206;16.340;2022-08-23T04:16:41;98975.56;;;20.26;65.92
16331;BME280;8275;48.206;16.340;2022-08-23T04:19:13;98979.50;;;20.25;66.00
16331;BME280;8275;48.206;16.340;2022-08-23T04:21:46;98977.84;;;20.24;66.17
16331;BME280;8275;48.206;16.340;2022-08-23T04:24:16;98979.50;;;20.25;65.95
16331;BME280;8275;48.206;16.340;2022-08-23T04:26:45;98987.84;;;20.25;66.07
16331;BME280;8275;48.206;16.340;2022-08-23T04:29:15;98977.50;;;20.26;66.18
16331;BME280;8275;48.206;16.340;2022-08-23T04:32:00;98983.59;;;20.28;66.49
16331;BME280;8275;48.206;16.340;2022-08-23T04:34:34;98980.47;;;20.29;66.59
16331;BME280;8275;48.206;16.340;2022-08-23T04:37:08;98991.25;;;20.31;66.67
16331;BME280;8275;48.206;16.340;2022-08-23T04:39:37;98982.59;;;20.33;66.39
16331;BME280;8275;48.206;16.340;2022-08-23T04:42:21;98994.03;;;20.31;66.32
16331;BME280;8275;48.206;16.340;2022-08-23T04:44:50;98990.13;;;20.32;66.54
16331;BME280;8275;48.206;16.340;2022-08-23T04:47:18;98995.34;;;20.34;66.30
16331;BME280;8275;48.206;16.340;2022-08-23T04:49:47;98995.06;;;20.35;66.49
16331;BME280;8275;48.206;16.340;2022-08-23T04:52:17;98995.53;;;20.37;66.68
16331;BME280;8275;48.206;16.340;2022-08-23T04:54:46;99011.91;;;20.39;66.49
16331;BME280;8275;48.206;16.340;2022-08-23T04:57:14;98996.03;;;20.39;66.68
16331;BME280;8275;48.206;16.340;2022-08-23T04:59:43;99003.53;;;20.39;66.58
16331;BME280;8275;48.206;16.340;2022-08-23T05:02:12;99009.94;;;20.39;66.54
16331;BME280;8275;48.206;16.340;2022-08-23T05:04:40;99013.53;;;20.40;66.64
16331;BME280;8275;48.206;16.340;2022-08-23T05:07:09;99007.97;;;20.40;66.32
16331;BME280;8275;48.206;16.340;2022-08-23T05:09:39;99009.13;;;20.39;66.58
16331;BME280;8275;48.206;16.340;2022-08-23T05:12:07;99012.38;;;20.41;66.62
16331;BME280;8275;48.206;16.340;2022-08-23T05:14:36;99010.75;;;20.40;66.38
16331;BME280;8275;48.206;16.340;2022-08-23T05:17:04;99011.25;;;20.42;66.86
16331;BME280;8275;48.206;16.340;2022-08-23T05:19:35;99022.03;;;20.43;66.67
16331;BME280;8275;48.206;16.340;2022-08-23T05:22:10;99018.13;;;20.44;66.88
16331;BME280;8275;48.206;16.340;2022-08-23T05:24:40;99015.34;;;20.44;66.51
16331;BME280;8275;48.206;16.340;2022-08-23T05:27:08;99026.13;;;20.46;66.69
16331;BME280;8275;48.206;16.340;2022-08-23T05:29:39;99028.59;;;20.47;66.72
16331;BME280;8275;48.206;16.340;2022-08-23T05:32:08;99027.94;;;20.50;66.78
16331;BME280;8275;48.206;16.340;2022-08-23T05:34:36;99031.22;;;20.52;66.81
16331;BME280;8275;48.206;16.340;2022-08-23T05:37:05;99032.03;;;20.53;66.75
16331;BME280;8275;48.206;16.340;2022-08-23T05:39:33;99042.00;;;20.54;66.50
16331;BME280;8275;48.206;16.340;2022-08-23T05:42:05;99035.16;;;20.51;66.81
16331;BME280;8275;48.206;16.340;2022-08-23T05:44:34;99041.22;;;20.53;66.67
16331;BME280;8275;48.206;16.340;2022-08-23T05:47:06;99053.66;;;20.56;66.70
16331;BME280;8275;48.206;16.340;2022-08-23T05:49:38;99050.53;;;20.57;66.63
16331;BME280;8275;48.206;16.340;2022-08-23T05:52:09;99056.94;;;20.58;66.62
16331;BME280;8275;48.206;16.340;2022-08-23T05:54:39;99048.56;;;20.58;66.63
16331;BME280;8275;48.206;16.340;2022-08-23T05:57:09;99050.53;;;20.57;66.71
16331;BME280;8275;48.206;16.340;2022-08-23T05:59:38;99052.16;;;20.58;66.66
16331;BME280;8275;48.206;16.340;2022-08-23T06:02:08;99053.81;;;20.59;66.70
16331;BME280;8275;48.206;16.340;2022-08-23T06:04:37;99060.19;;;20.60;66.99
16331;BME280;8275;48.206;16.340;2022-08-23T06:07:05;99059.84;;;20.61;66.89
16331;BME280;8275;48.206;16.340;2022-08-23T06:09:36;99053.81;;;20.59;66.26
16331;BME280;8275;48.206;16.340;2022-08-23T06:12:04;99054.94;;;20.58;66.55
16331;BME280;8275;48.206;16.340;2022-08-23T06:14:34;99052.97;;;20.59;66.72
16331;BME280;8275;48.206;16.340;2022-08-23T06:17:03;99055.47;;;20.60;67.05
16331;BME280;8275;48.206;16.340;2022-08-23T06:19:32;99055.13;;;20.62;67.19
16331;BME280;8275;48.206;16.340;2022-08-23T06:22:01;99062.00;;;20.64;67.01
16331;BME280;8275;48.206;16.340;2022-08-23T06:24:29;99050.88;;;20.64;66.67
16331;BME280;8275;48.206;16.340;2022-08-23T06:26:58;99058.56;;;20.67;67.18
16331;BME280;8275;48.206;16.340;2022-08-23T06:29:27;99057.41;;;20.68;67.09
16331;BME280;8275;48.206;16.340;2022-08-23T06:31:56;99060.03;;;20.73;67.55
16331;BME280;8275;48.206;16.340;2022-08-23T06:34:28;99060.69;;;20.79;67.77
16331;BME280;8275;48.206;16.340;2022-08-23T06:37:02;99056.25;;;20.86;67.57
16331;BME280;8275;48.206;16.340;2022-08-23T06:39:31;99054.13;;;20.92;67.37
16331;BME280;8275;48.206;16.340;2022-08-23T06:42:07;99063.13;;;20.97;67.76
16331;BME280;8275;48.206;16.340;2022-08-23T06:44:55;99060.84;;;21.08;67.81
16331;BME280;8275;48.206;16.340;2022-08-23T06:47:26;99069.84;;;21.14;67.45
16331;BME280;8275;48.206;16.340;2022-08-23T06:49:54;99067.22;;;21.17;67.04
16331;BME280;8275;48.206;16.340;2022-08-23T06:52:24;99068.19;;;21.21;67.24
16331;BME280;8275;48.206;16.340;2022-08-23T06:54:53;99060.81;;;21.25;67.42
16331;BME280;8275;48.206;16.340;2022-08-23T06:57:23;99069.16;;;21.34;67.60
16331;BME280;8275;48.206;16.340;2022-08-23T06:59:52;99072.25;;;21.41;67.63
16331;BME280;8275;48.206;16.340;2022-08-23T07:02:21;99063.03;;;21.49;67.90
16331;BME280;8275;48.206;16.340;2022-08-23T07:04:51;99066.13;;;21.56;67.92
16331;BME280;8275;48.206;16.340;2022-08-23T07:07:22;99066.09;;;21.64;67.48
16331;BME280;8275;48.206;16.340;2022-08-23T07:10:08;99065.25;;;21.73;67.55
16331;BME280;8275;48.206;16.340;2022-08-23T07:12:41;99068.47;;;21.83;67.79
16331;BME280;8275;48.206;16.340;2022-08-23T07:15:10;99069.63;;;21.91;67.49
16331;BME280;8275;48.206;16.340;2022-08-23T07:17:39;99074.19;;;21.95;66.32
16331;BME280;8275;48.206;16.340;2022-08-23T07:20:09;99067.13;;;21.98;66.03
16331;BME280;8275;48.206;16.340;2022-08-23T07:22:38;99068.09;;;22.02;65.92
16331;BME280;8275;48.206;16.340;2022-08-23T07:25:07;99072.00;;;22.09;66.39
16331;BME280;8275;48.206;16.340;2022-08-23T07:27:36;99074.72;;;22.18;66.85
16331;BME280;8275;48.206;16.340;2022-08-23T07:30:07;99072.38;;;22.28;66.76
16331;BME280;8275;48.206;16.340;2022-08-23T07:32:35;99074.09;;;22.42;66.66
16331;BME280;8275;48.206;16.340;2022-08-23T07:35:05;99070.09;;;22.51;65.95
16331;BME280;8275;48.206;16.340;2022-08-23T07:37:35;99068.91;;;22.61;65.29
16331;BME280;8275;48.206;16.340;2022-08-23T07:40:06;99074.88;;;22.71;64.56
16331;BME280;8275;48.206;16.340;2022-08-23T07:42:35;99071.00;;;22.84;64.36
16331;BME280;8275;48.206;16.340;2022-08-23T07:45:05;99083.06;;;22.97;64.57
16331;BME280;8275;48.206;16.340;2022-08-23T07:47:36;99088.34;;;23.11;64.38
16331;BME280;8275;48.206;16.340;2022-08-23T07:50:06;99085.72;;;23.26;63.35
16331;BME280;8275;48.206;16.340;2022-08-23T07:52:36;99075.09;;;23.40;62.57
16331;BME280;8275;48.206;16.340;2022-08-23T07:55:06;99079.91;;;23.52;61.71
16331;BME280;8275;48.206;16.340;2022-08-23T07:57:35;99081.44;;;23.61;60.61
16331;BME280;8275;48.206;16.340;2022-08-23T08:00:05;99087.59;;;23.67;59.19
16331;BME280;8275;48.206;16.340;2022-08-23T08:02:33;99087.75;;;23.70;58.95
16331;BME280;8275;48.206;16.340;2022-08-23T08:05:03;99084.72;;;23.76;57.47
16331;BME280;8275;48.206;16.340;2022-08-23T08:07:31;99086.34;;;23.77;57.48
16331;BME280;8275;48.206;16.340;2022-08-23T08:10:06;99075.28;;;23.80;57.68
16331;BME280;8275;48.206;16.340;2022-08-23T08:12:35;99086.72;;;23.87;56.77
16331;BME280;8275;48.206;16.340;2022-08-23T08:15:05;99088.34;;;23.88;56.13
16331;BME280;8275;48.206;16.340;2022-08-23T08:17:33;99089.75;;;23.94;56.06
16331;BME280;8275;48.206;16.340;2022-08-23T08:20:03;99102.22;;;23.97;54.97
16331;BME280;8275;48.206;16.340;2022-08-23T08:22:33;99103.03;;;23.97;55.01
16331;BME280;8275;48.206;16.340;2022-08-23T08:25:01;99109.81;;;23.96;55.53
16331;BME280;8275;48.206;16.340;2022-08-23T08:27:31;99120.19;;;23.96;55.16
16331;BME280;8275;48.206;16.340;2022-08-23T08:30:02;99131.25;;;23.92;54.13
16331;BME280;8275;48.206;16.340;2022-08-23T08:32:30;99137.31;;;23.82;54.19
16331;BME280;8275;48.206;16.340;2022-08-23T08:34:59;99134.94;;;23.72;54.17
16331;BME280;8275;48.206;16.340;2022-08-23T08:37:28;99135.88;;;23.64;54.57
16331;BME280;8275;48.206;16.340;2022-08-23T08:39:58;99139.69;;;23.59;55.43
16331;BME280;8275;48.206;16.340;2022-08-23T08:42:52;99142.34;;;23.56;55.82
16331;BME280;8275;48.206;16.340;2022-08-23T08:45:30;99142.34;;;23.56;56.08
16331;BME280;8275;48.206;16.340;2022-08-23T08:48:07;99154.38;;;23.56;56.12
16331;BME280;8275;48.206;16.340;2022-08-23T08:50:44;99162.75;;;23.56;56.03
16331;BME280;8275;48.206;16.340;2022-08-23T08:53:21;99161.81;;;23.52;55.92
16331;BME280;8275;48.206;16.340;2022-08-23T08:55:56;99161.00;;;23.52;56.19
16331;BME280;8275;48.206;16.340;2022-08-23T08:58:39;99165.28;;;23.49;56.04
16331;BME280;8275;48.206;16.340;2022-08-23T09:01:08;99176.47;;;23.49;56.42
16331;BME280;8275;48.206;16.340;2022-08-23T09:03:37;99186.84;;;23.49;56.19
16331;BME280;8275;48.206;16.340;2022-08-23T09:06:17;99183.56;;;23.47;56.55
16331;BME280;8275;48.206;16.340;2022-08-23T09:09:07;99181.13;;;23.45;56.86
16331;BME280;8275;48.206;16.340;2022-08-23T09:11:53;99185.06;;;23.44;56.33
16331;BME280;8275;48.206;16.340;2022-08-23T09:14:41;99184.81;;;23.37;55.79
16331;BME280;8275;48.206;16.340;2022-08-23T09:17:20;99184.19;;;23.32;54.70
16331;BME280;8275;48.206;16.340;2022-08-23T09:19:52;99195.09;;;23.25;54.87
16331;BME280;8275;48.206;16.340;2022-08-23T09:22:31;99196.31;;;23.15;55.08
16331;BME280;8275;48.206;16.340;2022-08-23T09:25:06;99197.94;;;23.16;55.41
16331;BME280;8275;48.206;16.340;2022-08-23T09:27:36;99200.72;;;23.16;55.93
16331;BME280;8275;48.206;16.340;2022-08-23T09:30:10;99197.47;;;23.14;55.83
16331;BME280;8275;48.206;16.340;2022-08-23T09:32:41;99207.50;;;23.15;55.79
16331;BME280;8275;48.206;16.340;2022-08-23T09:35:15;99204.69;;;23.15;56.28
16331;BME280;8275;48.206;16.340;2022-08-23T09:38:03;99207.50;;;23.15;56.29
16331;BME280;8275;48.206;16.340;2022-08-23T09:40:47;99209.63;;;23.18;56.24
16331;BME280;8275;48.206;16.340;2022-08-23T09:43:21;99206.81;;;23.18;56.44
16331;BME280;8275;48.206;16.340;2022-08-23T09:45:57;99208.13;;;23.21;56.54
16331;BME280;8275;48.206;16.340;2022-08-23T09:48:38;99213.00;;;23.24;56.41
16331;BME280;8275;48.206;16.340;2022-08-23T09:51:17;99213.47;;;23.26;56.35
16331;BME280;8275;48.206;16.340;2022-08-23T09:53:52;99218.41;;;23.29;56.25
16331;BME280;8275;48.206;16.340;2022-08-23T09:56:33;99217.88;;;23.35;56.41
16331;BME280;8275;48.206;16.340;2022-08-23T09:59:17;99222.78;;;23.38;55.85
16331;BME280;8275;48.206;16.340;2022-08-23T10:01:57;99216.19;;;23.43;56.17
16331;BME280;8275;48.206;16.340;2022-08-23T10:04:40;99216.75;;;23.48;56.12
16331;BME280;8275;48.206;16.340;2022-08-23T10:07:33;99228.22;;;23.55;56.10
16331;BME280;8275;48.206;16.340;2022-08-23T10:10:24;99223.91;;;23.58;55.80
16331;BME280;8275;48.206;16.340;2022-08-23T10:12:56;99217.44;;;23.66;55.58
16331;BME280;8275;48.206;16.340;2022-08-23T10:15:42;99207.66;;;23.72;55.66
16331;BME280;8275;48.206;16.340;2022-08-23T10:18:31;99215.63;;;23.82;55.95
16331;BME280;8275;48.206;16.340;2022-08-23T10:21:07;99208.09;;;23.95;55.45
16331;BME280;8275;48.206;16.340;2022-08-23T10:23:47;99218.53;;;24.06;54.88
16331;BME280;8275;48.206;16.340;2022-08-23T10:26:27;99210.97;;;24.19;54.76
16331;BME280;8275;48.206;16.340;2022-08-23T10:29:05;99212.75;;;24.35;54.76
16331;BME280;8275;48.206;16.340;2022-08-23T10:32:01;99190.47;;;24.51;54.64
16331;BME280;8275;48.206;16.340;2022-08-23T10:34:49;99210.19;;;24.67;53.62
16331;BME280;8275;48.206;16.340;2022-08-23T10:37:46;99193.41;;;24.79;53.43
16331;BME280;8275;48.206;16.340;2022-08-23T10:40:24;99187.66;;;24.99;53.56
16331;BME280;8275;48.206;16.340;2022-08-23T10:43:07;99202.22;;;25.17;52.34
16331;BME280;8275;48.206;16.340;2022-08-23T10:45:43;99193.97;;;25.36;51.72
16331;BME280;8275;48.206;16.340;2022-08-23T10:48:20;99191.97;;;25.49;51.14
16331;BME280;8275;48.206;16.340;2022-08-23T10:50:58;99191.47;;;25.59;50.42
16331;BME280;8275;48.206;16.340;2022-08-23T10:53:37;99188.69;;;25.74;50.63
16331;BME280;8275;48.206;16.340;2022-08-23T10:56:13;99193.38;;;25.98;50.88
16331;BME280;8275;48.206;16.340;2022-08-23T10:58:47;99185.00;;;26.14;49.81
16331;BME280;8275;48.206;16.340;2022-08-23T11:01:20;99186.63;;;26.30;49.57
16331;BME280;8275;48.206;16.340;2022-08-23T11:04:01;99185.09;;;26.48;48.76
16331;BME280;8275;48.206;16.340;2022-08-23T11:06:48;99192.59;;;26.60;48.72
16331;BME280;8275;48.206;16.340;2022-08-23T11:09:49;99185.06;;;26.64;48.61
16331;BME280;8275;48.206;16.340;2022-08-23T11:12:23;99193.66;;;26.71;47.01
16331;BME280;8275;48.206;16.340;2022-08-23T11:15:21;99175.03;;;26.63;46.78
16331;BME280;8275;48.206;16.340;2022-08-23T11:18:06;99182.84;;;26.54;46.51
16331;BME280;8275;48.206;16.340;2022-08-23T11:21:08;99194.78;;;26.51;47.50
16331;BME280;8275;48.206;16.340;2022-08-23T11:23:51;99179.00;;;26.62;48.16
16331;BME280;8275;48.206;16.340;2022-08-23T11:27:02;99198.13;;;26.72;47.63
16331;BME280;8275;48.206;16.340;2022-08-23T11:29:40;99192.44;;;26.84;47.93
16331;BME280;8275;48.206;16.340;2022-08-23T11:32:29;99192.28;;;26.96;48.30
16331;BME280;8275;48.206;16.340;2022-08-23T11:35:10;99189.75;;;27.07;47.58
16331;BME280;8275;48.206;16.340;2022-08-23T11:37:56;99185.16;;;27.18;46.85
16331;BME280;8275;48.206;16.340;2022-08-23T11:43:40;99184.56;;;27.44;44.86
16331;BME280;8275;48.206;16.340;2022-08-23T11:46:29;99181.75;;;27.44;46.18
16331;BME280;8275;48.206;16.340;2022-08-23T11:49:25;99187.81;;;27.46;45.95
16331;BME280;8275;48.206;16.340;2022-08-23T11:52:10;99190.53;;;27.42;44.65
16331;BME280;8275;48.206;16.340;2022-08-23T11:55:24;99186.84;;;27.38;46.27
16331;BME280;8275;48.206;16.340;2022-08-23T11:58:13;99188.53;;;27.43;45.71
16331;BME280;8275;48.206;16.340;2022-08-23T12:01:02;99185.06;;;27.49;44.92
16331;BME280;8275;48.206;16.340;2022-08-23T12:03:42;99192.97;;;27.63;45.32
16331;BME280;8275;48.206;16.340;2022-08-23T12:06:41;99199.94;;;27.88;45.55
16331;BME280;8275;48.206;16.340;2022-08-23T12:09:51;99200.69;;;28.27;45.02
16331;BME280;8275;48.206;16.340;2022-08-23T12:12:33;99199.06;;;28.71;44.63
16331;BME280;8275;48.206;16.340;2022-08-23T12:15:10;99192.63;;;29.53;42.83
16331;BME280;8275;48.206;16.340;2022-08-23T12:18:13;99199.41;;;30.51;42.75
16331;BME280;8275;48.206;16.340;2022-08-23T12:20:48;99193.63;;;31.43;41.56
16331;BME280;8275;48.206;16.340;2022-08-23T12:23:19;99196.72;;;32.10;38.59
16331;BME280;8275;48.206;16.340;2022-08-23T12:25:59;99200.88;;;32.54;38.75
16331;BME280;8275;48.206;16.340;2022-08-23T12:28:39;99166.81;;;32.65;36.98
16331;BME280;8275;48.206;16.340;2022-08-23T12:31:23;99194.34;;;32.47;35.73
16331;BME280;8275;48.206;16.340;2022-08-23T12:34:14;99197.56;;;32.24;35.91
16331;BME280;8275;48.206;16.340;2022-08-23T12:36:52;99208.47;;;32.05;35.07
16331;BME280;8275;48.206;16.340;2022-08-23T12:39:28;99207.16;;;31.91;34.93
16331;BME280;8275;48.206;16.340;2022-08-23T12:42:06;99208.84;;;31.96;35.24
16331;BME280;8275;48.206;16.340;2022-08-23T12:44:36;99199.97;;;32.08;34.88
16331;BME280;8275;48.206;16.340;2022-08-23T12:47:13;99188.66;;;32.12;34.35
16331;BME280;8275;48.206;16.340;2022-08-23T12:49:55;99197.97;;;32.16;35.42
16331;BME280;8275;48.206;16.340;2022-08-23T12:52:29;99194.00;;;32.66;35.50
16331;BME280;8275;48.206;16.340;2022-08-23T12:54:58;99193.94;;;33.26;35.48
16331;BME280;8275;48.206;16.340;2022-08-23T12:57:34;99199.00;;;33.91;34.81
16331;BME280;8275;48.206;16.340;2022-08-23T13:00:15;99192.50;;;34.59;34.75
16331;BME280;8275;48.206;16.340;2022-08-23T13:02:53;99189.13;;;35.19;32.04
16331;BME280;8275;48.206;16.340;2022-08-23T13:05:37;99198.38;;;35.64;31.71
16331;BME280;8275;48.206;16.340;2022-08-23T13:08:11;99191.22;;;35.83;31.21
16331;BME280;8275;48.206;16.340;2022-08-23T13:10:43;99195.63;;;35.91;30.92
16331;BME280;8275;48.206;16.340;2022-08-23T13:13:15;99208.91;;;35.71;29.65
16331;BME280;8275;48.206;16.340;2022-08-23T13:15:51;99195.97;;;35.25;28.45
16331;BME280;8275;48.206;16.340;2022-08-23T13:18:30;99209.81;;;34.79;28.71
16331;BME280;8275;48.206;16.340;2022-08-23T13:21:28;99211.28;;;34.46;29.38
16331;BME280;8275;48.206;16.340;2022-08-23T13:24:31;99207.16;;;34.54;30.25
16331;BME280;8275;48.206;16.340;2022-08-23T13:27:19;99214.00;;;34.64;30.07
16331;BME280;8275;48.206;16.340;2022-08-23T13:29:56;99219.38;;;34.55;29.32
16331;BME280;8275;48.206;16.340;2022-08-23T13:32:33;99213.31;;;34.46;29.17
16331;BME280;8275;48.206;16.340;2022-08-23T13:35:29;99214.88;;;34.54;30.63
16331;BME280;8275;48.206;16.340;2022-08-23T13:38:14;99218.56;;;34.54;29.17
16331;BME280;8275;48.206;16.340;2022-08-23T13:40:59;99212.94;;;34.40;28.86
16331;BME280;8275;48.206;16.340;2022-08-23T13:43:35;99203.84;;;33.98;29.58